createdAt,value
2023-04-18T00:00:18.967Z,7.12
2023-04-18T00:01:25.718Z,7.12
2023-04-18T00:02:26.932Z,7.11
2023-04-18T00:03:30.591Z,7.11
2023-04-18T00:04:32.064Z,7.1
2023-04-18T00:05:33.668Z,7.08
2023-04-18T00:06:35.395Z,7.07
2023-04-18T00:07:37.136Z,7.07
2023-04-18T00:08:38.847Z,7.08
2023-04-18T00:09:40.638Z,7.06
2023-04-18T00:10:42.330Z,7.06
2023-04-18T00:11:44.053Z,7.07
2023-04-18T00:12:45.790Z,7.07
2023-04-18T00:13:47.575Z,7.08
2023-04-18T00:14:49.245Z,7.08
2023-04-18T00:15:51.014Z,7.08
2023-04-18T00:16:52.869Z,7.08
2023-04-18T00:17:54.493Z,7.07
2023-04-18T00:18:56.188Z,7.06
2023-04-18T00:19:57.938Z,7.05
2023-04-18T00:20:59.668Z,7.05
2023-04-18T00:22:01.377Z,7.05
2023-04-18T00:23:03.151Z,7.03
2023-04-18T00:24:04.856Z,7.02
2023-04-18T00:25:06.602Z,7.02
2023-04-18T00:26:08.510Z,7.01
2023-04-18T00:27:10.072Z,7
2023-04-18T00:28:11.823Z,6.99
2023-04-18T00:29:13.560Z,6.98
2023-04-18T00:30:15.265Z,6.97
2023-04-18T00:31:17.075Z,6.97
2023-04-18T00:32:18.749Z,6.97
2023-04-18T00:33:20.462Z,6.96
2023-04-18T00:34:22.215Z,6.96
2023-04-18T00:35:23.955Z,6.95
2023-04-18T00:36:25.673Z,6.95
2023-04-18T00:37:27.401Z,6.95
2023-04-18T00:38:29.132Z,6.95
2023-04-18T00:39:30.864Z,6.94
2023-04-18T00:40:32.593Z,6.94
2023-04-18T00:41:34.333Z,6.93
2023-04-18T00:42:36.115Z,6.93
2023-04-18T00:43:37.836Z,6.93
2023-04-18T00:44:39.522Z,6.92
2023-04-18T00:45:41.320Z,6.91
2023-04-18T00:46:43.011Z,6.91
2023-04-18T00:47:44.759Z,6.91
2023-04-18T00:48:46.475Z,6.91
2023-04-18T00:49:48.198Z,6.91
2023-04-18T00:50:49.945Z,6.9
2023-04-18T00:51:51.667Z,6.92
2023-04-18T00:52:53.422Z,6.92
2023-04-18T00:53:55.170Z,6.92
2023-04-18T00:54:56.889Z,6.93
2023-04-18T00:55:58.618Z,6.93
2023-04-18T00:57:00.361Z,6.94
2023-04-18T00:58:02.062Z,6.95
2023-04-18T00:59:03.829Z,6.96
2023-04-18T01:00:05.545Z,6.97
2023-04-18T01:01:07.303Z,6.98
2023-04-18T01:02:09.083Z,6.98
2023-04-18T01:03:11.005Z,6.99
2023-04-18T01:04:12.802Z,7.01
2023-04-18T01:05:14.223Z,7.01
2023-04-18T01:06:15.951Z,7.02
2023-04-18T01:07:17.677Z,7.03
2023-04-18T01:08:19.401Z,7.04
2023-04-18T01:09:21.145Z,7.05
2023-04-18T01:10:22.884Z,7.06
2023-04-18T01:11:24.619Z,7.07
2023-04-18T01:12:26.400Z,7.08
2023-04-18T01:13:28.081Z,7.09
2023-04-18T01:14:29.821Z,7.1
2023-04-18T01:15:31.614Z,7.11
2023-04-18T01:16:33.276Z,7.11
2023-04-18T01:17:35.115Z,7.12
2023-04-18T01:18:36.777Z,7.12
2023-04-18T01:19:38.520Z,7.13
2023-04-18T01:20:40.212Z,7.15
2023-04-18T01:21:41.962Z,7.15
2023-04-18T01:22:43.716Z,7.16
2023-04-18T01:23:45.435Z,7.16
2023-04-18T01:24:47.332Z,7.18
2023-04-18T01:25:48.869Z,7.19
2023-04-18T01:26:50.637Z,7.21
2023-04-18T01:27:52.347Z,7.22
2023-04-18T01:28:54.101Z,7.23
2023-04-18T01:29:55.862Z,7.24
2023-04-18T01:30:57.624Z,7.26
2023-04-18T01:31:59.300Z,7.26
2023-04-18T01:33:01.073Z,7.27
2023-04-18T01:34:02.777Z,7.28
2023-04-18T01:35:04.519Z,7.28
2023-04-18T01:36:06.241Z,7.29
2023-04-18T01:37:07.984Z,7.3
2023-04-18T01:38:09.735Z,7.3
2023-04-18T01:39:11.469Z,7.3
2023-04-18T01:40:13.176Z,7.3
2023-04-18T01:41:14.893Z,7.31
2023-04-18T01:42:16.642Z,7.31
2023-04-18T01:43:18.371Z,7.31
2023-04-18T01:44:20.125Z,7.31
2023-04-18T01:45:21.849Z,7.31
2023-04-18T01:46:23.622Z,7.31
2023-04-18T01:47:25.309Z,7.31
2023-04-18T01:48:27.056Z,7.3
2023-04-18T01:49:28.764Z,7.31
2023-04-18T01:50:30.528Z,7.3
2023-04-18T01:51:32.231Z,7.31
2023-04-18T01:52:33.979Z,7.31
2023-04-18T01:53:35.698Z,7.3
2023-04-18T01:54:37.425Z,7.31
2023-04-18T01:55:39.176Z,7.31
2023-04-18T01:56:40.895Z,7.32
2023-04-18T01:57:42.639Z,7.32
2023-04-18T01:58:44.400Z,7.33
2023-04-18T01:59:46.089Z,7.33
2023-04-18T02:00:47.876Z,7.33
2023-04-18T02:01:49.592Z,7.34
2023-04-18T02:02:51.465Z,7.33
2023-04-18T02:03:53.279Z,7.33
2023-04-18T02:04:54.761Z,7.32
2023-04-18T02:05:56.533Z,7.32
2023-04-18T02:06:58.238Z,7.32
2023-04-18T02:07:59.958Z,7.31
2023-04-18T02:09:01.760Z,7.31
2023-04-18T02:10:03.440Z,7.3
2023-04-18T02:11:05.189Z,7.29
2023-04-18T02:12:06.919Z,7.27
2023-04-18T02:13:08.639Z,7.26
2023-04-18T02:14:10.360Z,7.26
2023-04-18T02:15:12.118Z,7.23
2023-04-18T02:16:13.936Z,7.21
2023-04-18T02:17:15.574Z,7.18
2023-04-18T02:18:17.303Z,7.17
2023-04-18T02:19:19.025Z,7.16
2023-04-18T02:20:20.785Z,7.13
2023-04-18T02:21:22.529Z,7.12
2023-04-18T02:22:24.246Z,7.1
2023-04-18T02:23:25.990Z,7.08
2023-04-18T02:24:27.717Z,7.05
2023-04-18T02:25:29.436Z,7.01
2023-04-18T02:26:31.175Z,6.98
2023-04-18T02:27:32.926Z,6.97
2023-04-18T02:28:34.631Z,6.95
2023-04-18T02:29:36.385Z,6.92
2023-04-18T02:30:38.134Z,6.89
2023-04-18T02:31:39.894Z,6.87
2023-04-18T02:32:41.604Z,6.83
2023-04-18T02:33:43.336Z,6.81
2023-04-18T02:34:45.210Z,6.79
2023-04-18T02:35:46.823Z,6.75
2023-04-18T02:36:48.522Z,6.74
2023-04-18T02:37:50.246Z,6.71
2023-04-18T02:38:51.988Z,6.7
2023-04-18T02:39:53.719Z,6.67
2023-04-18T02:40:55.459Z,6.65
2023-04-18T02:41:57.198Z,6.63
2023-04-18T02:42:58.908Z,6.6
2023-04-18T02:44:00.632Z,6.59
2023-04-18T02:45:02.407Z,6.55
2023-04-18T02:46:04.157Z,6.53
2023-04-18T02:47:05.881Z,6.51
2023-04-18T02:48:07.689Z,6.48
2023-04-18T02:49:09.344Z,6.45
2023-04-18T02:50:11.080Z,6.44
2023-04-18T02:51:12.786Z,6.42
2023-04-18T02:52:14.540Z,6.4
2023-04-18T02:53:16.238Z,6.38
2023-04-18T02:54:17.993Z,6.36
2023-04-18T02:55:19.733Z,6.35
2023-04-18T02:56:21.448Z,6.34
2023-04-18T02:57:23.203Z,6.33
2023-04-18T02:58:24.922Z,6.31
2023-04-18T02:59:26.655Z,6.3
2023-04-18T03:00:28.383Z,6.29
2023-04-18T03:01:30.173Z,6.28
2023-04-18T03:02:31.961Z,6.26
2023-04-18T03:03:33.671Z,6.24
2023-04-18T03:04:35.419Z,6.22
2023-04-18T03:05:37.050Z,6.21
2023-04-18T03:06:38.789Z,6.2
2023-04-18T03:07:40.542Z,6.18
2023-04-18T03:08:42.261Z,6.16
2023-04-18T03:09:43.992Z,6.14
2023-04-18T03:10:45.725Z,6.13
2023-04-18T03:11:47.459Z,6.12
2023-04-18T03:12:49.219Z,6.1
2023-04-18T03:13:50.926Z,6.08
2023-04-18T03:14:52.682Z,6.06
2023-04-18T03:15:54.477Z,6.05
2023-04-18T03:16:56.138Z,6.04
2023-04-18T03:17:57.930Z,6.02
2023-04-18T03:18:59.596Z,6.01
2023-04-18T03:20:01.341Z,5.99
2023-04-18T03:21:03.071Z,5.98
2023-04-18T03:22:04.798Z,5.96
2023-04-18T03:23:06.527Z,5.95
2023-04-18T03:24:09.691Z,5.94
2023-04-18T03:25:10.000Z,5.91
2023-04-18T03:26:11.738Z,5.89
2023-04-18T03:27:13.476Z,5.88
2023-04-18T03:28:15.224Z,5.86
2023-04-18T03:29:16.943Z,5.85
2023-04-18T03:30:18.659Z,5.84
2023-04-18T03:31:20.479Z,5.84
2023-04-18T03:32:22.200Z,5.84
2023-04-18T03:33:23.911Z,5.84
2023-04-18T03:34:25.596Z,5.83
2023-04-18T03:35:27.356Z,5.84
2023-04-18T03:36:29.058Z,5.84
2023-04-18T03:37:30.828Z,5.83
2023-04-18T03:38:32.550Z,5.81
2023-04-18T03:39:34.282Z,5.81
2023-04-18T03:40:36.053Z,5.79
2023-04-18T03:41:37.730Z,5.79
2023-04-18T03:42:39.501Z,5.78
2023-04-18T03:43:41.216Z,5.78
2023-04-18T03:44:42.955Z,5.76
2023-04-18T03:45:44.666Z,5.76
2023-04-18T03:46:46.403Z,5.74
2023-04-18T03:47:48.209Z,5.73
2023-04-18T03:48:49.906Z,5.74
2023-04-18T03:49:51.622Z,5.73
2023-04-18T03:50:53.364Z,5.73
2023-04-18T03:51:55.099Z,5.72
2023-04-18T03:52:56.826Z,5.71
2023-04-18T03:53:58.559Z,5.7
2023-04-18T03:55:00.285Z,5.7
2023-04-18T03:56:02.028Z,5.69
2023-04-18T03:57:03.770Z,5.69
2023-04-18T03:58:05.535Z,5.7
2023-04-18T03:59:07.239Z,5.69
2023-04-18T04:00:08.963Z,5.7
2023-04-18T04:01:10.706Z,5.7
2023-04-18T04:02:12.537Z,5.7
2023-04-18T04:03:14.272Z,5.69
2023-04-18T04:04:16.292Z,5.69
2023-04-18T04:05:17.661Z,5.7
2023-04-18T04:06:19.378Z,5.68
2023-04-18T04:07:21.091Z,5.69
2023-04-18T04:08:22.840Z,5.69
2023-04-18T04:09:24.699Z,5.68
2023-04-18T04:10:26.297Z,5.68
2023-04-18T04:11:28.025Z,5.67
2023-04-18T04:12:29.742Z,5.66
2023-04-18T04:13:31.511Z,5.65
2023-04-18T04:14:33.250Z,5.65
2023-04-18T04:15:34.980Z,5.64
2023-04-18T04:16:36.710Z,5.64
2023-04-18T04:17:38.449Z,5.63
2023-04-18T04:18:40.168Z,5.63
2023-04-18T04:19:41.909Z,5.63
2023-04-18T04:20:43.624Z,5.62
2023-04-18T04:21:45.416Z,5.61
2023-04-18T04:22:47.100Z,5.59
2023-04-18T04:23:48.828Z,5.58
2023-04-18T04:24:50.566Z,5.56
2023-04-18T04:25:52.325Z,5.55
2023-04-18T04:26:54.055Z,5.55
2023-04-18T04:27:55.903Z,5.53
2023-04-18T04:28:57.513Z,5.52
2023-04-18T04:29:59.260Z,5.52
2023-04-18T04:31:00.955Z,5.51
2023-04-18T04:32:02.749Z,5.49
2023-04-18T04:33:04.511Z,5.48
2023-04-18T04:34:06.208Z,5.47
2023-04-18T04:35:07.963Z,5.46
2023-04-18T04:36:12.473Z,5.46
2023-04-18T04:37:14.236Z,5.46
2023-04-18T04:38:15.998Z,5.44
2023-04-18T04:39:17.669Z,5.45
2023-04-18T04:40:19.425Z,5.44
2023-04-18T04:41:21.132Z,5.43
2023-04-18T04:42:22.874Z,5.44
2023-04-18T04:43:24.602Z,5.43
2023-04-18T04:44:26.373Z,5.43
2023-04-18T04:45:28.120Z,5.43
2023-04-18T04:46:29.812Z,5.42
2023-04-18T04:47:31.626Z,5.42
2023-04-18T04:48:33.268Z,5.42
2023-04-18T04:49:35.008Z,5.41
2023-04-18T04:50:36.752Z,5.41
2023-04-18T04:51:38.488Z,5.41
2023-04-18T04:52:40.203Z,5.4
2023-04-18T04:53:41.965Z,5.38
2023-04-18T04:54:43.679Z,5.39
2023-04-18T04:55:45.430Z,5.38
2023-04-18T04:56:47.158Z,5.37
2023-04-18T04:57:48.870Z,5.36
2023-04-18T04:58:50.612Z,5.36
2023-04-18T04:59:52.332Z,5.33
2023-04-18T05:00:54.150Z,5.33
2023-04-18T05:01:55.856Z,5.33
2023-04-18T05:02:57.716Z,5.31
2023-04-18T05:03:59.365Z,5.31
2023-04-18T05:05:01.038Z,5.3
2023-04-18T05:06:02.749Z,5.3
2023-04-18T05:07:04.484Z,5.29
2023-04-18T05:08:06.224Z,5.29
2023-04-18T05:09:07.977Z,5.29
2023-04-18T05:10:09.696Z,5.29
2023-04-18T05:11:11.416Z,5.29
2023-04-18T05:12:13.139Z,5.28
2023-04-18T05:13:14.890Z,5.29
2023-04-18T05:14:16.697Z,5.29
2023-04-18T05:15:18.372Z,5.29
2023-04-18T05:16:20.128Z,5.29
2023-04-18T05:17:21.864Z,5.3
2023-04-18T05:18:23.562Z,5.31
2023-04-18T05:19:25.293Z,5.31
2023-04-18T05:20:27.027Z,5.32
2023-04-18T05:21:28.772Z,5.33
2023-04-18T05:22:30.493Z,5.34
2023-04-18T05:23:32.228Z,5.35
2023-04-18T05:24:33.968Z,5.36
2023-04-18T05:25:35.701Z,5.37
2023-04-18T05:26:37.442Z,5.38
2023-04-18T05:27:39.159Z,5.4
2023-04-18T05:28:40.904Z,5.42
2023-04-18T05:29:42.635Z,5.45
2023-04-18T05:30:44.421Z,5.49
2023-04-18T05:31:46.086Z,5.5
2023-04-18T05:32:47.894Z,5.52
2023-04-18T05:33:49.578Z,5.54
2023-04-18T05:34:51.302Z,5.56
2023-04-18T05:35:52.865Z,5.58
2023-04-18T05:36:54.651Z,5.59
2023-04-18T05:37:56.347Z,5.61
2023-04-18T05:38:58.078Z,5.64
2023-04-18T05:40:00.735Z,5.66
2023-04-18T05:41:01.553Z,5.68
2023-04-18T05:42:03.294Z,5.7
2023-04-18T05:43:05.014Z,5.71
2023-04-18T05:44:06.759Z,5.74
2023-04-18T05:45:08.486Z,5.75
2023-04-18T05:46:10.249Z,5.77
2023-04-18T05:47:11.944Z,5.79
2023-04-18T05:48:13.674Z,5.82
2023-04-18T05:49:15.421Z,5.83
2023-04-18T05:50:17.161Z,5.85
2023-04-18T05:51:18.899Z,5.88
2023-04-18T05:52:20.756Z,5.91
2023-04-18T05:53:22.363Z,5.95
2023-04-18T05:54:24.102Z,5.98
2023-04-18T05:55:25.840Z,6.01
2023-04-18T05:56:27.558Z,6.06
2023-04-18T05:57:29.431Z,6.09
2023-04-18T05:58:31.036Z,6.12
2023-04-18T05:59:32.789Z,6.15
2023-04-18T06:00:34.523Z,6.18
2023-04-18T06:01:36.219Z,6.23
2023-04-18T06:02:38.170Z,6.28
2023-04-18T06:03:40.065Z,6.34
2023-04-18T06:04:41.716Z,6.4
2023-04-18T06:05:43.230Z,6.44
2023-04-18T06:06:44.891Z,6.49
2023-04-18T06:07:46.637Z,6.52
2023-04-18T06:08:48.364Z,6.54
2023-04-18T06:09:50.089Z,6.56
2023-04-18T06:10:51.857Z,6.59
2023-04-18T06:11:53.568Z,6.61
2023-04-18T06:12:55.308Z,6.63
2023-04-18T06:13:57.035Z,6.64
2023-04-18T06:14:58.767Z,6.66
2023-04-18T06:16:00.529Z,6.68
2023-04-18T06:17:02.274Z,6.7
2023-04-18T06:18:04.003Z,6.72
2023-04-18T06:19:05.718Z,6.73
2023-04-18T06:20:07.435Z,6.75
2023-04-18T06:21:09.188Z,6.77
2023-04-18T06:22:10.910Z,6.79
2023-04-18T06:23:12.649Z,6.81
2023-04-18T06:24:14.545Z,6.83
2023-04-18T06:25:16.134Z,6.86
2023-04-18T06:26:17.840Z,6.89
2023-04-18T06:27:30.530Z,6.91
2023-04-18T06:28:21.314Z,6.94
2023-04-18T06:29:23.042Z,6.96
2023-04-18T06:30:24.772Z,6.99
2023-04-18T06:31:26.537Z,7.02
2023-04-18T06:32:28.297Z,7.06
2023-04-18T06:33:29.984Z,7.11
2023-04-18T06:34:31.702Z,7.15
2023-04-18T06:35:33.440Z,7.19
2023-04-18T06:36:35.169Z,7.24
2023-04-18T06:37:36.913Z,7.28
2023-04-18T06:38:38.645Z,7.33
2023-04-18T06:39:40.374Z,7.34
2023-04-18T06:40:42.148Z,7.37
2023-04-18T06:41:43.892Z,7.41
2023-04-18T06:42:45.580Z,7.44
2023-04-18T06:43:59.630Z,7.45
2023-04-18T06:44:49.039Z,7.48
2023-04-18T06:45:50.819Z,7.5
2023-04-18T06:46:52.521Z,7.52
2023-04-18T06:47:54.324Z,7.54
2023-04-18T06:48:55.974Z,7.55
2023-04-18T06:49:57.719Z,7.54
2023-04-18T06:50:59.446Z,7.56
2023-04-18T06:52:01.193Z,7.58
2023-04-18T06:53:02.920Z,7.59
2023-04-18T06:54:04.657Z,7.6
2023-04-18T06:55:06.388Z,7.6
2023-04-18T06:56:08.130Z,7.59
2023-04-18T06:57:09.847Z,7.6
2023-04-18T06:58:11.581Z,7.61
2023-04-18T06:59:13.424Z,7.61
2023-04-18T07:00:15.050Z,7.62
2023-04-18T07:01:16.881Z,7.62
2023-04-18T07:02:18.635Z,7.63
2023-04-18T07:03:20.612Z,7.64
2023-04-18T07:04:22.184Z,7.66
2023-04-18T07:05:23.710Z,7.66
2023-04-18T07:06:25.474Z,7.66
2023-04-18T07:07:27.205Z,7.68
2023-04-18T07:08:28.924Z,7.68
2023-04-18T07:09:30.656Z,7.68
2023-04-18T07:10:32.558Z,7.68
2023-04-18T07:11:34.120Z,7.68
2023-04-18T07:12:35.859Z,7.7
2023-04-18T07:13:37.584Z,7.69
2023-04-18T07:14:39.323Z,7.7
2023-04-18T07:15:41.065Z,7.71
2023-04-18T07:16:42.792Z,7.69
2023-04-18T07:17:44.578Z,7.68
2023-04-18T07:18:46.260Z,7.66
2023-04-18T07:19:47.994Z,7.66
2023-04-18T07:20:49.715Z,7.67
2023-04-18T07:21:51.452Z,7.66
2023-04-18T07:22:53.199Z,7.64
2023-04-18T07:23:54.924Z,7.63
2023-04-18T07:24:56.669Z,7.62
2023-04-18T07:25:58.384Z,7.6
2023-04-18T07:27:00.127Z,7.59
2023-04-18T07:28:01.841Z,7.6
2023-04-18T07:29:03.599Z,7.61
2023-04-18T07:30:05.329Z,7.62
2023-04-18T07:31:07.072Z,7.6
2023-04-18T07:32:08.788Z,7.62
2023-04-18T07:33:10.521Z,7.63
2023-04-18T07:34:12.380Z,7.62
2023-04-18T07:35:14.017Z,7.67
2023-04-18T07:36:15.737Z,7.67
2023-04-18T07:37:17.468Z,7.69
2023-04-18T07:38:19.196Z,7.71
2023-04-18T07:39:20.930Z,7.74
2023-04-18T07:40:22.668Z,7.76
2023-04-18T07:41:24.404Z,7.79
2023-04-18T07:42:26.177Z,7.8
2023-04-18T07:43:27.883Z,7.82
2023-04-18T07:44:29.617Z,7.86
2023-04-18T07:45:31.340Z,7.86
2023-04-18T07:46:33.073Z,7.89
2023-04-18T07:47:34.875Z,7.89
2023-04-18T07:48:36.524Z,7.88
2023-04-18T07:49:38.283Z,7.91
2023-04-18T07:50:40.005Z,7.89
2023-04-18T07:51:41.744Z,7.89
2023-04-18T07:52:43.481Z,7.91
2023-04-18T07:53:45.209Z,7.9
2023-04-18T07:54:46.961Z,7.92
2023-04-18T07:55:48.678Z,7.9
2023-04-18T07:56:50.426Z,7.92
2023-04-18T07:57:52.142Z,7.93
2023-04-18T07:58:53.873Z,7.94
2023-04-18T07:59:55.631Z,7.96
2023-04-18T08:00:57.356Z,7.98
2023-04-18T08:01:59.105Z,8
2023-04-18T08:03:01.052Z,8
2023-04-18T08:04:02.714Z,8.02
2023-04-18T08:05:04.399Z,8.03
2023-04-18T08:06:06.028Z,8.03
2023-04-18T08:07:07.762Z,8.06
2023-04-18T08:08:09.507Z,8.06
2023-04-18T08:09:11.297Z,8.09
2023-04-18T08:10:12.973Z,8.12
2023-04-18T08:11:14.689Z,8.15
2023-04-18T08:12:16.424Z,8.18
2023-04-18T08:13:18.160Z,8.23
2023-04-18T08:14:19.909Z,8.23
2023-04-18T08:15:21.768Z,8.26
2023-04-18T08:16:23.393Z,8.3
2023-04-18T08:17:25.138Z,8.34
2023-04-18T08:18:26.861Z,8.37
2023-04-18T08:19:28.566Z,8.38
2023-04-18T08:20:30.281Z,8.42
2023-04-18T08:21:32.025Z,8.48
2023-04-18T08:22:33.772Z,8.52
2023-04-18T08:23:35.510Z,8.57
2023-04-18T08:24:37.232Z,8.58
2023-04-18T08:25:38.968Z,8.63
2023-04-18T08:26:40.693Z,8.65
2023-04-18T08:27:42.436Z,8.67
2023-04-18T08:28:46.093Z,8.67
2023-04-18T08:29:45.903Z,8.68
2023-04-18T08:30:47.648Z,8.69
2023-04-18T08:31:49.406Z,8.7
2023-04-18T08:32:51.135Z,8.76
2023-04-18T08:33:52.849Z,8.8
2023-04-18T08:34:54.566Z,8.82
2023-04-18T08:35:56.287Z,8.85
2023-04-18T08:36:58.042Z,8.88
2023-04-18T08:37:59.779Z,8.91
2023-04-18T08:39:01.496Z,8.96
2023-04-18T08:40:03.250Z,9
2023-04-18T08:41:04.985Z,9
2023-04-18T08:42:06.729Z,9.04
2023-04-18T08:43:08.449Z,9.04
2023-04-18T08:44:10.162Z,9.05
2023-04-18T08:45:11.915Z,9.08
2023-04-18T08:46:13.677Z,9.08
2023-04-18T08:47:15.389Z,9.12
2023-04-18T08:48:17.103Z,9.17
2023-04-18T08:49:18.847Z,9.17
2023-04-18T08:50:20.592Z,9.17
2023-04-18T08:51:22.302Z,9.24
2023-04-18T08:52:24.035Z,9.26
2023-04-18T08:53:25.770Z,9.25
2023-04-18T08:54:27.542Z,9.28
2023-04-18T08:55:29.248Z,9.3
2023-04-18T08:56:30.981Z,9.31
2023-04-18T08:57:32.713Z,9.29
2023-04-18T08:58:34.441Z,9.29
2023-04-18T08:59:36.173Z,9.24
2023-04-18T09:00:37.912Z,9.25
2023-04-18T09:01:39.668Z,9.23
2023-04-18T09:02:41.442Z,9.23
2023-04-18T09:03:43.315Z,9.23
2023-04-18T09:04:44.941Z,9.25
2023-04-18T09:05:46.594Z,9.27
2023-04-18T09:06:48.319Z,9.28
2023-04-18T09:07:50.138Z,9.3
2023-04-18T09:08:51.802Z,9.28
2023-04-18T09:09:53.530Z,9.32
2023-04-18T09:10:55.253Z,9.26
2023-04-18T09:11:56.993Z,9.25
2023-04-18T09:12:58.738Z,9.26
2023-04-18T09:14:00.428Z,9.28
2023-04-18T09:15:02.185Z,9.28
2023-04-18T09:16:03.936Z,9.3
2023-04-18T09:17:05.739Z,9.32
2023-04-18T09:18:07.461Z,9.34
2023-04-18T09:19:09.137Z,9.33
2023-04-18T09:20:10.868Z,9.37
2023-04-18T09:21:12.588Z,9.37
2023-04-18T09:22:14.314Z,9.38
2023-04-18T09:23:16.082Z,9.4
2023-04-18T09:24:17.807Z,9.45
2023-04-18T09:25:19.541Z,9.46
2023-04-18T09:26:21.265Z,9.46
2023-04-18T09:27:23.012Z,9.47
2023-04-18T09:28:24.747Z,9.52
2023-04-18T09:29:26.463Z,9.59
2023-04-18T09:30:28.204Z,9.63
2023-04-18T09:31:29.946Z,9.68
2023-04-18T09:32:31.737Z,9.73
2023-04-18T09:33:33.397Z,9.75
2023-04-18T09:34:35.134Z,9.8
2023-04-18T09:35:36.862Z,9.83
2023-04-18T09:36:38.623Z,9.86
2023-04-18T09:37:40.336Z,9.89
2023-04-18T09:38:42.082Z,9.91
2023-04-18T09:39:43.793Z,9.93
2023-04-18T09:40:45.519Z,10
2023-04-18T09:41:47.262Z,10.07
2023-04-18T09:42:49.011Z,10.17
2023-04-18T09:43:50.736Z,10.21
2023-04-18T09:44:52.463Z,10.35
2023-04-18T09:45:54.241Z,10.42
2023-04-18T09:46:55.932Z,10.55
2023-04-18T09:47:57.692Z,10.62
2023-04-18T09:48:59.411Z,10.68
2023-04-18T09:50:01.136Z,10.82
2023-04-18T09:51:02.870Z,10.93
2023-04-18T09:52:04.614Z,11.05
2023-04-18T09:53:06.345Z,11.2
2023-04-18T09:54:08.090Z,11.37
2023-04-18T09:55:09.805Z,11.55
2023-04-18T09:56:11.550Z,11.69
2023-04-18T09:57:13.261Z,11.87
2023-04-18T09:58:15.023Z,12.05
2023-04-18T09:59:18.071Z,12.28
2023-04-18T10:00:18.480Z,12.5
2023-04-18T10:01:20.271Z,12.42
2023-04-18T10:02:22.049Z,12.54
2023-04-18T10:03:23.752Z,12.51
2023-04-18T10:04:25.534Z,12.42
2023-04-18T10:05:27.212Z,12.3
2023-04-18T10:06:28.890Z,12.29
2023-04-18T10:07:30.625Z,12.18
2023-04-18T10:08:32.364Z,12.07
2023-04-18T10:09:34.078Z,12.02
2023-04-18T10:10:35.814Z,12.05
2023-04-18T10:11:37.548Z,11.97
2023-04-18T10:12:39.291Z,12
2023-04-18T10:13:41.020Z,11.89
2023-04-18T10:14:42.772Z,11.87
2023-04-18T10:15:44.624Z,11.91
2023-04-18T10:16:47.503Z,11.91
2023-04-18T10:18:02.711Z,12.05
2023-04-18T10:18:49.687Z,12.09
2023-04-18T10:19:51.421Z,12.09
2023-04-18T10:20:56.177Z,12.24
2023-04-18T10:21:54.887Z,12.42
2023-04-18T10:22:56.636Z,12.55
2023-04-18T10:23:58.552Z,12.69
2023-04-18T10:25:00.175Z,12.85
2023-04-18T10:26:01.829Z,13.03
2023-04-18T10:27:03.556Z,13.05
2023-04-18T10:28:05.290Z,13.18
2023-04-18T10:29:07.099Z,13.33
2023-04-18T10:30:09.211Z,13.34
2023-04-18T10:31:10.529Z,13.34
2023-04-18T10:32:12.239Z,13.27
2023-04-18T10:33:25.785Z,13.28
2023-04-18T10:34:15.707Z,13.32
2023-04-18T10:35:17.458Z,13.35
2023-04-18T10:36:19.176Z,13.41
2023-04-18T10:37:20.954Z,13.36
2023-04-18T10:38:22.636Z,13.36
2023-04-18T10:39:24.360Z,13.33
2023-04-18T10:40:26.101Z,13.33
2023-04-18T10:41:27.838Z,13.33
2023-04-18T10:42:29.566Z,13.3
2023-04-18T10:43:31.310Z,13.14
2023-04-18T10:44:33.042Z,12.94
2023-04-18T10:45:34.790Z,12.94
2023-04-18T10:46:38.398Z,12.82
2023-04-18T10:47:38.357Z,12.59
2023-04-18T10:48:41.622Z,12.63
2023-04-18T10:49:41.712Z,12.7
2023-04-18T10:50:43.439Z,12.71
2023-04-18T10:51:45.172Z,12.77
2023-04-18T10:52:46.908Z,12.93
2023-04-18T10:53:48.648Z,13.02
2023-04-18T10:54:50.374Z,13.15
2023-04-18T10:55:52.121Z,13.29
2023-04-18T10:56:53.849Z,13.44
2023-04-18T10:57:56.530Z,13.6
2023-04-18T10:58:57.316Z,13.72
2023-04-18T10:59:59.043Z,13.81
2023-04-18T11:01:00.876Z,13.88
2023-04-18T11:02:02.540Z,14.01
2023-04-18T11:03:04.629Z,13.85
2023-04-18T11:04:06.097Z,13.91
2023-04-18T11:05:07.715Z,14
2023-04-18T11:06:09.467Z,14
2023-04-18T11:07:11.175Z,13.93
2023-04-18T11:08:13.010Z,13.93
2023-04-18T11:09:14.671Z,13.98
2023-04-18T11:10:16.389Z,13.97
2023-04-18T11:11:18.129Z,13.98
2023-04-18T11:12:19.870Z,13.95
2023-04-18T11:13:21.590Z,14.01
2023-04-18T11:14:23.316Z,14.02
2023-04-18T11:15:25.148Z,14.03
2023-04-18T11:16:26.869Z,14.16
2023-04-18T11:17:28.600Z,14.18
2023-04-18T11:18:30.244Z,14.19
2023-04-18T11:19:31.985Z,14.25
2023-04-18T11:20:33.732Z,14.27
2023-04-18T11:21:35.484Z,14.36
2023-04-18T11:22:37.203Z,14.41
2023-04-18T11:23:38.948Z,14.45
2023-04-18T11:24:40.676Z,14.52
2023-04-18T11:25:42.404Z,14.62
2023-04-18T11:26:44.158Z,14.73
2023-04-18T11:27:45.879Z,14.73
2023-04-18T11:28:47.615Z,14.78
2023-04-18T11:29:49.343Z,14.87
2023-04-18T11:30:51.096Z,14.98
2023-04-18T11:31:53.325Z,14.99
2023-04-18T11:32:54.565Z,15.11
2023-04-18T11:33:56.264Z,15.2
2023-04-18T11:34:58.041Z,15.32
2023-04-18T11:35:59.760Z,15.38
2023-04-18T11:37:01.512Z,15.46
2023-04-18T11:38:03.197Z,15.6
2023-04-18T11:39:04.935Z,15.68
2023-04-18T11:40:06.667Z,15.96
2023-04-18T11:41:08.418Z,16.28
2023-04-18T11:42:10.171Z,16.43
2023-04-18T11:43:11.867Z,16.61
2023-04-18T11:44:13.778Z,16.47
2023-04-18T11:45:15.341Z,16.57
2023-04-18T11:46:17.119Z,16.72
2023-04-18T11:47:18.815Z,16.76
2023-04-18T11:48:20.574Z,16.89
2023-04-18T11:49:22.287Z,16.79
2023-04-18T11:50:24.036Z,16.76
2023-04-18T11:51:25.750Z,16.8
2023-04-18T11:52:27.471Z,16.9
2023-04-18T11:53:29.206Z,16.83
2023-04-18T11:54:30.953Z,16.82
2023-04-18T11:55:32.687Z,16.86
2023-04-18T11:56:36.664Z,16.9
2023-04-18T11:57:36.158Z,16.94
2023-04-18T11:58:37.876Z,16.83
2023-04-18T11:59:39.615Z,16.88
2023-04-18T12:00:41.362Z,16.86
2023-04-18T12:01:43.102Z,16.86
2023-04-18T12:02:44.910Z,16.83
2023-04-18T12:03:46.901Z,16.74
2023-04-18T12:04:48.456Z,16.77
2023-04-18T12:05:50.234Z,16.83
2023-04-18T12:06:51.748Z,16.94
2023-04-18T12:07:53.482Z,16.9
2023-04-18T12:08:55.213Z,16.94
2023-04-18T12:09:56.951Z,17.08
2023-04-18T12:10:58.692Z,17.14
2023-04-18T12:12:00.413Z,17.07
2023-04-18T12:13:02.147Z,16.93
2023-04-18T12:14:04.247Z,16.91
2023-04-18T12:15:05.640Z,16.88
2023-04-18T12:16:07.406Z,16.73
2023-04-18T12:17:09.092Z,16.53
2023-04-18T12:18:10.837Z,16.28
2023-04-18T12:19:12.550Z,16.02
2023-04-18T12:20:14.358Z,15.84
2023-04-18T12:21:16.040Z,15.74
2023-04-18T12:22:17.778Z,15.62
2023-04-18T12:23:19.512Z,15.5
2023-04-18T12:24:21.302Z,15.49
2023-04-18T12:25:26.655Z,15.34
2023-04-18T12:26:24.712Z,15.3
2023-04-18T12:27:26.436Z,15.24
2023-04-18T12:28:28.191Z,15.21
2023-04-18T12:29:29.914Z,15.2
2023-04-18T12:30:31.892Z,15.16
2023-04-18T12:31:33.691Z,15.04
2023-04-18T12:32:35.160Z,15.02
2023-04-18T12:33:36.900Z,15.06
2023-04-18T12:34:38.582Z,14.94
2023-04-18T12:35:40.310Z,14.91
2023-04-18T12:36:42.055Z,14.85
2023-04-18T12:37:43.791Z,14.81
2023-04-18T12:38:45.514Z,14.82
2023-04-18T12:39:47.277Z,14.76
2023-04-18T12:40:48.989Z,14.65
2023-04-18T12:41:50.714Z,14.59
2023-04-18T12:42:52.440Z,14.58
2023-04-18T12:43:54.195Z,14.54
2023-04-18T12:44:55.934Z,14.53
2023-04-18T12:45:57.649Z,14.44
2023-04-18T12:46:59.433Z,14.43
2023-04-18T12:48:01.172Z,14.4
2023-04-18T12:49:02.890Z,14.38
2023-04-18T12:50:04.588Z,14.36
2023-04-18T12:51:06.325Z,14.38
2023-04-18T12:52:08.057Z,14.32
2023-04-18T12:53:09.783Z,14.35
2023-04-18T12:54:11.713Z,14.33
2023-04-18T12:55:13.279Z,14.42
2023-04-18T12:56:15.007Z,14.46
2023-04-18T12:57:16.729Z,14.46
2023-04-18T12:58:18.444Z,14.45
2023-04-18T12:59:20.199Z,14.41
2023-04-18T13:00:21.946Z,14.37
2023-04-18T13:01:23.815Z,14.33
2023-04-18T13:02:25.527Z,14.31
2023-04-18T13:03:27.240Z,14.33
2023-04-18T13:04:29.304Z,14.29
2023-04-18T13:05:33.448Z,14.28
2023-04-18T13:06:32.497Z,14.3
2023-04-18T13:07:34.070Z,14.31
2023-04-18T13:08:35.811Z,14.31
2023-04-18T13:09:37.534Z,14.32
2023-04-18T13:10:39.284Z,14.4
2023-04-18T13:11:41.019Z,14.42
2023-04-18T13:12:43.295Z,14.4
2023-04-18T13:13:44.508Z,14.3
2023-04-18T13:14:46.205Z,14.29
2023-04-18T13:15:47.944Z,14.24
2023-04-18T13:16:49.751Z,14.19
2023-04-18T13:17:51.511Z,14.15
2023-04-18T13:18:53.149Z,14.08
2023-04-18T13:19:54.888Z,14.01
2023-04-18T13:20:56.616Z,13.95
2023-04-18T13:21:58.343Z,13.91
2023-04-18T13:23:00.103Z,13.86
2023-04-18T13:24:02.831Z,13.8
2023-04-18T13:25:03.611Z,13.77
2023-04-18T13:26:05.269Z,13.71
2023-04-18T13:27:07.014Z,13.65
2023-04-18T13:28:08.766Z,13.66
2023-04-18T13:29:10.480Z,13.66
2023-04-18T13:30:12.264Z,13.69
2023-04-18T13:31:16.846Z,13.72
2023-04-18T13:32:15.747Z,13.78
2023-04-18T13:33:17.426Z,13.83
2023-04-18T13:34:19.166Z,13.88
2023-04-18T13:35:20.889Z,13.94
2023-04-18T13:36:22.612Z,14.01
2023-04-18T13:37:24.353Z,14.1